Station Historical Data
Daily Summary for July 9, 2017 Units:  Both    English   Metric
« Previous Day
Next Day »
Daily Weekly Monthly Yearly Custom
  High: Low: Average:
Temperature: 78.5 °F /  25.8 °C 57.3 °F /  14.1 °C 70 °F /  21.1 °C
Dew Point: 61.8 °F /  16.6 °C 46.7 °F /  8.2 °C 55.6 °F /  13.1 °C
Humidity: 77% 45% 61%
Wind Speed: 23.0mph /  37km/h - 5.4mph /  8.7km/h
Wind Gust: 24.0mph /  38.6km/h - -
Wind- - WSW
Pressure: 30.00 in /  1015.8 hPa 29.92 in /  1013.1 hPa -
Precipitation: 0.00 in /  0 mm    
Historical Graphs
 
 
Tabular Data for July 9, 2017
Time Temperature Dew Point Pressure Wind Wind Speed Wind Gust Humidity Rainfall Rate (Hourly)
00:04 63.9 °F /  17.7 °C 49.7 °F /  9.8 °C 29.92in /  1013.1hPa WNW 1.0mph /  1.6km/h 4.0mph /  6.4km/h 60% 0.00in /  0mm
00:09 63.8 °F /  17.7 °C 49.6 °F /  9.8 °C 29.92in /  1013.1hPa West 1.0mph /  1.6km/h 3.0mph /  4.8km/h 60% 0.00in /  0mm
00:14 63.7 °F /  17.6 °C 49.5 °F /  9.7 °C 29.92in /  1013.1hPa West 2.0mph /  3.2km/h 3.0mph /  4.8km/h 60% 0.00in /  0mm
00:19 63.4 °F /  17.4 °C 49.7 °F /  9.8 °C 29.93in /  1013.4hPa West 1.0mph /  1.6km/h 3.0mph /  4.8km/h 61% 0.00in /  0mm
00:24 63.2 °F /  17.3 °C 49.5 °F /  9.7 °C 29.93in /  1013.4hPa West 1.0mph /  1.6km/h 3.0mph /  4.8km/h 61% 0.00in /  0mm
00:29 63.0 °F /  17.2 °C 49.3 °F /  9.6 °C 29.93in /  1013.4hPa WNW 1.0mph /  1.6km/h 4.0mph /  6.4km/h 61% 0.00in /  0mm
00:34 62.9 °F /  17.2 °C 49.2 °F /  9.6 °C 29.93in /  1013.4hPa WNW 2.0mph /  3.2km/h 5.0mph /  8km/h 61% 0.00in /  0mm
00:39 62.9 °F /  17.2 °C 49.2 °F /  9.6 °C 29.93in /  1013.4hPa NW 2.0mph /  3.2km/h 4.0mph /  6.4km/h 61% 0.00in /  0mm
00:44 62.9 °F /  17.2 °C 49.2 °F /  9.6 °C 29.93in /  1013.4hPa West 1.0mph /  1.6km/h 4.0mph /  6.4km/h 61% 0.00in /  0mm
00:49 63.0 °F /  17.2 °C 49.3 °F /  9.6 °C 29.94in /  1013.8hPa WNW 2.0mph /  3.2km/h 4.0mph /  6.4km/h 61% 0.00in /  0mm
00:54 62.9 °F /  17.2 °C 49.7 °F /  9.8 °C 29.94in /  1013.8hPa WSW 1.0mph /  1.6km/h 3.0mph /  4.8km/h 62% 0.00in /  0mm
00:59 62.8 °F /  17.1 °C 49.6 °F /  9.8 °C 29.93in /  1013.4hPa West 1.0mph /  1.6km/h 4.0mph /  6.4km/h 62% 0.00in /  0mm
01:05 62.7 °F /  17.1 °C 49.5 °F /  9.7 °C 29.94in /  1013.8hPa West 2.0mph /  3.2km/h 4.0mph /  6.4km/h 62% 0.00in /  0mm
01:10 62.3 °F /  16.8 °C 49.1 °F /  9.5 °C 29.94in /  1013.8hPa West 2.0mph /  3.2km/h 5.0mph /  8km/h 62% 0.00in /  0mm
01:15 62.2 °F /  16.8 °C 49.0 °F /  9.4 °C 29.94in /  1013.8hPa West 4.0mph /  6.4km/h 4.0mph /  6.4km/h 62% 0.00in /  0mm
01:20 62.1 °F /  16.7 °C 48.9 °F /  9.4 °C 29.94in /  1013.8hPa West 4.0mph /  6.4km/h 4.0mph /  6.4km/h 62% 0.00in /  0mm
01:25 62.0 °F /  16.7 °C 48.8 °F /  9.3 °C 29.93in /  1013.4hPa West 2.0mph /  3.2km/h 6.0mph /  9.7km/h 62% 0.00in /  0mm
01:30 61.9 °F /  16.6 °C 48.7 °F /  9.3 °C 29.93in /  1013.4hPa West 3.0mph /  4.8km/h 6.0mph /  9.7km/h 62% 0.00in /  0mm
01:35 61.7 °F /  16.5 °C 48.5 °F /  9.2 °C 29.93in /  1013.4hPa West 2.0mph /  3.2km/h 5.0mph /  8km/h 62% 0.00in /  0mm
01:40 61.6 °F /  16.4 °C 48.4 °F /  9.1 °C 29.93in /  1013.4hPa West 2.0mph /  3.2km/h 5.0mph /  8km/h 62% 0.00in /  0mm
01:45 61.4 °F /  16.3 °C 48.3 °F /  9.1 °C 29.94in /  1013.8hPa WNW 3.0mph /  4.8km/h 7.0mph /  11.3km/h 62% 0.00in /  0mm
01:50 61.5 °F /  16.4 °C 47.9 °F /  8.8 °C 29.94in /  1013.8hPa West 3.0mph /  4.8km/h 7.0mph /  11.3km/h 61% 0.00in /  0mm
01:55 61.5 °F /  16.4 °C 47.9 °F /  8.8 °C 29.94in /  1013.8hPa West 3.0mph /  4.8km/h 7.0mph /  11.3km/h 61% 0.00in /  0mm
02:00 61.4 °F /  16.3 °C 47.8 °F /  8.8 °C 29.94in /  1013.8hPa West 3.0mph /  4.8km/h 5.0mph /  8km/h 61% 0.00in /  0mm
02:05 61.2 °F /  16.2 °C 47.6 °F /  8.7 °C 29.94in /  1013.8hPa West 2.0mph /  3.2km/h 5.0mph /  8km/h 61% 0.00in /  0mm
02:10 61.0 °F /  16.1 °C 47.4 °F /  8.6 °C 29.94in /  1013.8hPa West 1.0mph /  1.6km/h 3.0mph /  4.8km/h 61% 0.00in /  0mm
02:15 60.9 °F /  16.1 °C 47.4 °F /  8.6 °C 29.94in /  1013.8hPa West 1.0mph /  1.6km/h 4.0mph /  6.4km/h 61% 0.00in /  0mm
02:20 60.8 °F /  16 °C 47.3 °F /  8.5 °C 29.94in /  1013.8hPa West 2.0mph /  3.2km/h 4.0mph /  6.4km/h 61% 0.00in /  0mm
02:25 60.8 °F /  16 °C 47.3 °F /  8.5 °C 29.94in /  1013.8hPa West 1.0mph /  1.6km/h 4.0mph /  6.4km/h 61% 0.00in /  0mm
02:30 60.8 °F /  16 °C 46.8 °F /  8.2 °C 29.94in /  1013.8hPa Calm   3.0mph /  4.8km/h 60% 0.00in /  0mm
02:35 60.7 °F /  15.9 °C 47.2 °F /  8.4 °C 29.94in /  1013.8hPa Calm     61% 0.00in /  0mm
02:40 60.5 °F /  15.8 °C 47.0 °F /  8.3 °C 29.94in /  1013.8hPa Calm     61% 0.00in /  0mm
02:45 60.4 °F /  15.8 °C 46.9 °F /  8.3 °C 29.94in /  1013.8hPa Calm     61% 0.00in /  0mm
02:50 60.0 °F /  15.6 °C 46.9 °F /  8.3 °C 29.94in /  1013.8hPa Calm     62% 0.00in /  0mm
02:55 60.3 °F /  15.7 °C 47.2 °F /  8.4 °C 29.94in /  1013.8hPa West 2.0mph /  3.2km/h 3.0mph /  4.8km/h 62% 0.00in /  0mm
03:00 60.6 °F /  15.9 °C 47.1 °F /  8.4 °C 29.94in /  1013.8hPa West 1.0mph /  1.6km/h 4.0mph /  6.4km/h 61% 0.00in /  0mm
03:05 60.6 °F /  15.9 °C 47.1 °F /  8.4 °C 29.94in /  1013.8hPa Calm   3.0mph /  4.8km/h 61% 0.00in /  0mm
03:10 60.6 °F /  15.9 °C 47.1 °F /  8.4 °C 29.94in /  1013.8hPa West 3.0mph /  4.8km/h 4.0mph /  6.4km/h 61% 0.00in /  0mm
03:15 60.8 °F /  16 °C 47.3 °F /  8.5 °C 29.94in /  1013.8hPa West 3.0mph /  4.8km/h 5.0mph /  8km/h 61% 0.00in /  0mm
03:20 61.1 °F /  16.2 °C 47.5 °F /  8.6 °C 29.94in /  1013.8hPa West 3.0mph /  4.8km/h 6.0mph /  9.7km/h 61% 0.00in /  0mm
03:25 61.3 °F /  16.3 °C 47.7 °F /  8.7 °C 29.94in /  1013.8hPa West 3.0mph /  4.8km/h 6.0mph /  9.7km/h 61% 0.00in /  0mm
03:30 61.3 °F /  16.3 °C 47.3 °F /  8.5 °C 29.94in /  1013.8hPa West 3.0mph /  4.8km/h 5.0mph /  8km/h 60% 0.00in /  0mm
03:35 61.2 °F /  16.2 °C 47.2 °F /  8.4 °C 29.94in /  1013.8hPa West 2.0mph /  3.2km/h 5.0mph /  8km/h 60% 0.00in /  0mm
03:40 61.3 °F /  16.3 °C 47.3 °F /  8.5 °C 29.94in /  1013.8hPa West 2.0mph /  3.2km/h 6.0mph /  9.7km/h 60% 0.00in /  0mm
03:45 61.2 °F /  16.2 °C 47.2 °F /  8.4 °C 29.94in /  1013.8hPa West 2.0mph /  3.2km/h 5.0mph /  8km/h 60% 0.00in /  0mm
03:50 61.2 °F /  16.2 °C 47.2 °F /  8.4 °C 29.94in /  1013.8hPa WNW 1.0mph /  1.6km/h 4.0mph /  6.4km/h 60% 0.00in /  0mm
03:55 61.2 °F /  16.2 °C 47.2 °F /  8.4 °C 29.94in /  1013.8hPa West 3.0mph /  4.8km/h 3.0mph /  4.8km/h 60% 0.00in /  0mm
04:00 60.8 °F /  16 °C 46.8 °F /  8.2 °C 29.94in /  1013.8hPa Calm   3.0mph /  4.8km/h 60% 0.00in /  0mm
04:05 60.5 °F /  15.8 °C 47.0 °F /  8.3 °C 29.94in /  1013.8hPa West 1.0mph /  1.6km/h 3.0mph /  4.8km/h 61% 0.00in /  0mm
04:10 60.7 °F /  15.9 °C 47.2 °F /  8.4 °C 29.94in /  1013.8hPa West 1.0mph /  1.6km/h 3.0mph /  4.8km/h 61% 0.00in /  0mm
04:15 60.6 °F /  15.9 °C 47.1 °F /  8.4 °C 29.94in /  1013.8hPa Calm   3.0mph /  4.8km/h 61% 0.00in /  0mm
04:20 60.2 °F /  15.7 °C 47.1 °F /  8.4 °C 29.94in /  1013.8hPa Calm   3.0mph /  4.8km/h 62% 0.00in /  0mm
04:25 59.5 °F /  15.3 °C 46.9 °F /  8.3 °C 29.94in /  1013.8hPa Calm     63% 0.00in /  0mm
04:30 59.0 °F /  15 °C 46.8 °F /  8.2 °C 29.94in /  1013.8hPa Calm     64% 0.00in /  0mm
04:35 58.6 °F /  14.8 °C 46.9 °F /  8.3 °C 29.94in /  1013.8hPa Calm     65% 0.00in /  0mm
04:40 58.4 °F /  14.7 °C 46.7 °F /  8.2 °C 29.94in /  1013.8hPa Calm     65% 0.00in /  0mm
04:45 58.3 °F /  14.6 °C 47.0 °F /  8.3 °C 29.94in /  1013.8hPa Calm     66% 0.00in /  0mm
04:50 58.1 °F /  14.5 °C 47.2 °F /  8.4 °C 29.94in /  1013.8hPa Calm     67% 0.00in /  0mm
04:55 57.8 °F /  14.3 °C 46.9 °F /  8.3 °C 29.94in /  1013.8hPa Calm     67% 0.00in /  0mm
05:00 57.5 °F /  14.2 °C 47.0 °F /  8.3 °C 29.94in /  1013.8hPa Calm     68% 0.00in /  0mm
05:05 57.5 °F /  14.2 °C 47.4 °F /  8.6 °C 29.95in /  1014.1hPa Calm     69% 0.00in /  0mm
05:10 57.8 °F /  14.3 °C 48.5 °F /  9.2 °C 29.94in /  1013.8hPa Calm     71% 0.00in /  0mm
05:15 57.9 °F /  14.4 °C 49.3 °F /  9.6 °C 29.94in /  1013.8hPa Calm     73% 0.00in /  0mm
05:20 57.7 °F /  14.3 °C 49.8 °F /  9.9 °C 29.95in /  1014.1hPa Calm     75% 0.00in /  0mm
05:25 57.5 °F /  14.2 °C 50.0 °F /  10 °C 29.95in /  1014.1hPa Calm     76% 0.00in /  0mm
05:30 57.3 °F /  14.1 °C 50.1 °F /  10.1 °C 29.95in /  1014.1hPa Calm     77% 0.00in /  0mm
05:35 57.3 °F /  14.1 °C 50.1 °F /  10.1 °C 29.95in /  1014.1hPa Calm     77% 0.00in /  0mm
05:40 57.3 °F /  14.1 °C 50.1 °F /  10.1 °C 29.95in /  1014.1hPa Calm     77% 0.00in /  0mm
05:45 57.6 °F /  14.2 °C 50.4 °F /  10.2 °C 29.95in /  1014.1hPa Calm     77% 0.00in /  0mm
05:49 57.7 °F /  14.3 °C 50.5 °F /  10.3 °C 29.95in /  1014.1hPa Calm     77% 0.00in /  0mm
05:55 58.0 °F /  14.4 °C 50.8 °F /  10.4 °C 29.95in /  1014.1hPa Calm     77% 0.00in /  0mm
06:00 58.0 °F /  14.4 °C 50.8 °F /  10.4 °C 29.95in /  1014.1hPa Calm     77% 0.00in /  0mm
06:05 58.1 °F /  14.5 °C 50.9 °F /  10.5 °C 29.95in /  1014.1hPa Calm     77% 0.00in /  0mm
06:10 58.2 °F /  14.6 °C 51.0 °F /  10.6 °C 29.95in /  1014.1hPa Calm     77% 0.00in /  0mm
06:15 58.2 °F /  14.6 °C 51.0 °F /  10.6 °C 29.95in /  1014.1hPa Calm     77% 0.00in /  0mm
06:20 58.4 °F /  14.7 °C 51.2 °F /  10.7 °C 29.95in /  1014.1hPa Calm     77% 0.00in /  0mm
06:24 58.7 °F /  14.8 °C 51.5 °F /  10.8 °C 29.96in /  1014.4hPa Calm     77% 0.00in /  0mm
06:30 59.2 °F /  15.1 °C 52.0 °F /  11.1 °C 29.96in /  1014.4hPa Calm     77% 0.00in /  0mm
06:35 59.8 °F /  15.4 °C 52.6 °F /  11.4 °C 29.96in /  1014.4hPa Calm     77% 0.00in /  0mm
06:40 60.6 °F /  15.9 °C 53.3 °F /  11.8 °C 29.96in /  1014.4hPa Calm   4.0mph /  6.4km/h 77% 0.00in /  0mm
06:45 61.2 °F /  16.2 °C 53.6 °F /  12 °C 29.96in /  1014.4hPa Calm   7.0mph /  11.3km/h 76% 0.00in /  0mm
06:50 61.9 °F /  16.6 °C 54.2 °F /  12.3 °C 29.97in /  1014.8hPa SSW 1.0mph /  1.6km/h 4.0mph /  6.4km/h 76% 0.00in /  0mm
06:55 62.7 °F /  17.1 °C 54.7 °F /  12.6 °C 29.97in /  1014.8hPa SSW 2.0mph /  3.2km/h 5.0mph /  8km/h 75% 0.00in /  0mm
07:00 63.6 °F /  17.6 °C 55.5 °F /  13.1 °C 29.97in /  1014.8hPa SSW 2.0mph /  3.2km/h 6.0mph /  9.7km/h 75% 0.00in /  0mm
07:05 64.0 °F /  17.8 °C 55.9 °F /  13.3 °C 29.97in /  1014.8hPa SSW 2.0mph /  3.2km/h 7.0mph /  11.3km/h 75% 0.00in /  0mm
07:10 64.2 °F /  17.9 °C 56.1 °F /  13.4 °C 29.97in /  1014.8hPa SW 3.0mph /  4.8km/h 7.0mph /  11.3km/h 75% 0.00in /  0mm
07:20 64.7 °F /  18.2 °C 57.0 °F /  13.9 °C 29.97in /  1014.8hPa SSW 3.0mph /  4.8km/h 7.0mph /  11.3km/h 76% 0.00in /  0mm
07:25 65.1 °F /  18.4 °C 57.0 °F /  13.9 °C 29.97in /  1014.8hPa SSW 3.0mph /  4.8km/h 7.0mph /  11.3km/h 75% 0.00in /  0mm
07:30 65.6 °F /  18.7 °C 57.5 °F /  14.2 °C 29.97in /  1014.8hPa SSW 4.0mph /  6.4km/h 8.0mph /  12.9km/h 75% 0.00in /  0mm
07:35 66.1 °F /  18.9 °C 57.9 °F /  14.4 °C 29.97in /  1014.8hPa SSW 5.0mph /  8km/h 10.0mph /  16.1km/h 75% 0.00in /  0mm
07:39 66.4 °F /  19.1 °C 58.2 °F /  14.6 °C 29.97in /  1014.8hPa SW 7.0mph /  11.3km/h 9.0mph /  14.5km/h 75% 0.00in /  0mm
07:44 66.7 °F /  19.3 °C 58.1 °F /  14.5 °C 29.97in /  1014.8hPa SSW 5.0mph /  8km/h 10.0mph /  16.1km/h 74% 0.00in /  0mm
07:49 66.9 °F /  19.4 °C 58.3 °F /  14.6 °C 29.98in /  1015.1hPa SW 6.0mph /  9.7km/h 9.0mph /  14.5km/h 74% 0.00in /  0mm
07:55 67.3 °F /  19.6 °C 58.7 °F /  14.8 °C 29.98in /  1015.1hPa South 4.0mph /  6.4km/h 8.0mph /  12.9km/h 74% 0.00in /  0mm
08:00 67.7 °F /  19.8 °C 58.7 °F /  14.8 °C 29.98in /  1015.1hPa SW 6.0mph /  9.7km/h 13.0mph /  20.9km/h 73% 0.00in /  0mm
08:05 67.9 °F /  19.9 °C 59.3 °F /  15.2 °C 29.98in /  1015.1hPa WSW 8.0mph /  12.9km/h 13.0mph /  20.9km/h 74% 0.00in /  0mm
08:10 68.3 °F /  20.2 °C 59.3 °F /  15.2 °C 29.98in /  1015.1hPa SSW 3.0mph /  4.8km/h 10.0mph /  16.1km/h 73% 0.00in /  0mm
08:15 68.6 °F /  20.3 °C 59.6 °F /  15.3 °C 29.99in /  1015.5hPa SW 4.0mph /  6.4km/h 9.0mph /  14.5km/h 73% 0.00in /  0mm
08:19 68.9 °F /  20.5 °C 59.5 °F /  15.3 °C 29.98in /  1015.1hPa SSW 4.0mph /  6.4km/h 9.0mph /  14.5km/h 72% 0.00in /  0mm
08:25 69.3 °F /  20.7 °C 59.9 °F /  15.5 °C 29.99in /  1015.5hPa SSW 4.0mph /  6.4km/h 11.0mph /  17.7km/h 72% 0.00in /  0mm
08:30 69.6 °F /  20.9 °C 60.2 °F /  15.7 °C 29.99in /  1015.5hPa WSW 3.0mph /  4.8km/h 9.0mph /  14.5km/h 72% 0.00in /  0mm
08:35 70.1 °F /  21.2 °C 60.7 °F /  15.9 °C 29.99in /  1015.5hPa SW 8.0mph /  12.9km/h 12.0mph /  19.3km/h 72% 0.00in /  0mm
08:40 70.7 °F /  21.5 °C 60.8 °F /  16 °C 29.99in /  1015.5hPa SSE 9.0mph /  14.5km/h 11.0mph /  17.7km/h 71% 0.00in /  0mm
08:45 71.1 °F /  21.7 °C 60.4 °F /  15.8 °C 29.99in /  1015.5hPa SSW 6.0mph /  9.7km/h 12.0mph /  19.3km/h 69% 0.00in /  0mm
08:49 71.7 °F /  22.1 °C 59.7 °F /  15.4 °C 29.99in /  1015.5hPa SSW 5.0mph /  8km/h 12.0mph /  19.3km/h 66% 0.00in /  0mm
08:55 72.0 °F /  22.2 °C 59.2 °F /  15.1 °C 29.99in /  1015.5hPa WSW 3.0mph /  4.8km/h 8.0mph /  12.9km/h 64% 0.00in /  0mm
09:00 72.6 °F /  22.6 °C 59.3 °F /  15.2 °C 29.99in /  1015.5hPa WSW 4.0mph /  6.4km/h 10.0mph /  16.1km/h 63% 0.00in /  0mm
09:05 72.3 °F /  22.4 °C 59.4 °F /  15.2 °C 29.99in /  1015.5hPa SSW 2.0mph /  3.2km/h 9.0mph /  14.5km/h 64% 0.00in /  0mm
09:10 72.4 °F /  22.4 °C 58.6 °F /  14.8 °C 29.99in /  1015.5hPa West 7.0mph /  11.3km/h 9.0mph /  14.5km/h 62% 0.00in /  0mm
09:15 72.9 °F /  22.7 °C 59.6 °F /  15.3 °C 29.99in /  1015.5hPa SW 4.0mph /  6.4km/h 8.0mph /  12.9km/h 63% 0.00in /  0mm
09:20 73.0 °F /  22.8 °C 59.7 °F /  15.4 °C 29.99in /  1015.5hPa SW 4.0mph /  6.4km/h 12.0mph /  19.3km/h 63% 0.00in /  0mm
09:25 72.9 °F /  22.7 °C 59.6 °F /  15.3 °C 29.99in /  1015.5hPa SW 4.0mph /  6.4km/h 12.0mph /  19.3km/h 63% 0.00in /  0mm
09:30 72.6 °F /  22.6 °C 58.4 °F /  14.7 °C 29.99in /  1015.5hPa WSW 5.0mph /  8km/h 10.0mph /  16.1km/h 61% 0.00in /  0mm
09:35 72.9 °F /  22.7 °C 60.4 °F /  15.8 °C 29.99in /  1015.5hPa WSW 5.0mph /  8km/h 10.0mph /  16.1km/h 65% 0.00in /  0mm
09:40 73.0 °F /  22.8 °C 60.1 °F /  15.6 °C 29.99in /  1015.5hPa WSW 5.0mph /  8km/h 11.0mph /  17.7km/h 64% 0.00in /  0mm
09:45 73.2 °F /  22.9 °C 60.7 °F /  15.9 °C 29.99in /  1015.5hPa WSW 2.0mph /  3.2km/h 8.0mph /  12.9km/h 65% 0.00in /  0mm
09:49 74.0 °F /  23.3 °C 61.0 °F /  16.1 °C 29.99in /  1015.5hPa West 6.0mph /  9.7km/h 9.0mph /  14.5km/h 64% 0.00in /  0mm
09:54 73.9 °F /  23.3 °C 60.5 °F /  15.8 °C 29.99in /  1015.5hPa WSW 7.0mph /  11.3km/h 13.0mph /  20.9km/h 63% 0.00in /  0mm
09:59 74.0 °F /  23.3 °C 60.2 °F /  15.7 °C 29.99in /  1015.5hPa WSW 7.0mph /  11.3km/h 13.0mph /  20.9km/h 62% 0.00in /  0mm
10:05 74.4 °F /  23.6 °C 60.1 °F /  15.6 °C 29.99in /  1015.5hPa SW 6.0mph /  9.7km/h 11.0mph /  17.7km/h 61% 0.00in /  0mm
10:09 74.3 °F /  23.5 °C 60.0 °F /  15.6 °C 30.00in /  1015.8hPa West 7.0mph /  11.3km/h 13.0mph /  20.9km/h 61% 0.00in /  0mm
10:14 74.3 °F /  23.5 °C 60.0 °F /  15.6 °C 30.00in /  1015.8hPa SW 6.0mph /  9.7km/h 13.0mph /  20.9km/h 61% 0.00in /  0mm
10:20 74.7 °F /  23.7 °C 60.4 °F /  15.8 °C 30.00in /  1015.8hPa SW 6.0mph /  9.7km/h 13.0mph /  20.9km/h 61% 0.00in /  0mm
10:25 75.0 °F /  23.9 °C 60.6 °F /  15.9 °C 30.00in /  1015.8hPa SW 6.0mph /  9.7km/h 13.0mph /  20.9km/h 61% 0.00in /  0mm
10:30 75.2 °F /  24 °C 59.9 °F /  15.5 °C 30.00in /  1015.8hPa WSW 6.0mph /  9.7km/h 12.0mph /  19.3km/h 59% 0.00in /  0mm
10:35 75.0 °F /  23.9 °C 59.2 °F /  15.1 °C 30.00in /  1015.8hPa WSW 6.0mph /  9.7km/h 12.0mph /  19.3km/h 58% 0.00in /  0mm
10:40 76.1 °F /  24.5 °C 60.7 °F /  15.9 °C 30.00in /  1015.8hPa WSW 6.0mph /  9.7km/h 12.0mph /  19.3km/h 59% 0.00in /  0mm
10:45 75.8 °F /  24.3 °C 60.4 °F /  15.8 °C 30.00in /  1015.8hPa SSW 9.0mph /  14.5km/h 15.0mph /  24.1km/h 59% 0.00in /  0mm
10:49 75.4 °F /  24.1 °C 60.5 °F /  15.8 °C 30.00in /  1015.8hPa WSW 7.0mph /  11.3km/h 15.0mph /  24.1km/h 60% 0.00in /  0mm
10:54 75.0 °F /  23.9 °C 58.7 °F /  14.8 °C 30.00in /  1015.8hPa WNW 12.0mph /  19.3km/h 13.0mph /  20.9km/h 57% 0.00in /  0mm
10:59 75.2 °F /  24 °C 60.4 °F /  15.8 °C 30.00in /  1015.8hPa SSE 4.0mph /  6.4km/h 11.0mph /  17.7km/h 60% 0.00in /  0mm
11:04 75.4 °F /  24.1 °C 60.1 °F /  15.6 °C 30.00in /  1015.8hPa SW 10.0mph /  16.1km/h 13.0mph /  20.9km/h 59% 0.00in /  0mm
11:09 74.9 °F /  23.8 °C 59.1 °F /  15.1 °C 30.00in /  1015.8hPa SW 4.0mph /  6.4km/h 16.0mph /  25.7km/h 58% 0.00in /  0mm
11:14 74.6 °F /  23.7 °C 58.4 °F /  14.7 °C 30.00in /  1015.8hPa WSW 11.0mph /  17.7km/h 14.0mph /  22.5km/h 57% 0.00in /  0mm
11:19 74.9 °F /  23.8 °C 59.6 °F /  15.3 °C 30.00in /  1015.8hPa WSW 7.0mph /  11.3km/h 14.0mph /  22.5km/h 59% 0.00in /  0mm
11:24 75.6 °F /  24.2 °C 59.3 °F /  15.2 °C 30.00in /  1015.8hPa WSW 7.0mph /  11.3km/h 16.0mph /  25.7km/h 57% 0.00in /  0mm
11:30 76.3 °F /  24.6 °C 59.4 °F /  15.2 °C 30.00in /  1015.8hPa WSW 7.0mph /  11.3km/h 16.0mph /  25.7km/h 56% 0.00in /  0mm
11:35 76.3 °F /  24.6 °C 59.9 °F /  15.5 °C 30.00in /  1015.8hPa SW 7.0mph /  11.3km/h 16.0mph /  25.7km/h 57% 0.00in /  0mm
11:40 76.9 °F /  24.9 °C 59.0 °F /  15 °C 30.00in /  1015.8hPa WSW 9.0mph /  14.5km/h 15.0mph /  24.1km/h 54% 0.00in /  0mm
11:45 77.5 °F /  25.3 °C 60.1 °F /  15.6 °C 30.00in /  1015.8hPa SW 8.0mph /  12.9km/h 15.0mph /  24.1km/h 55% 0.00in /  0mm
11:49 76.9 °F /  24.9 °C 57.9 °F /  14.4 °C 30.00in /  1015.8hPa WSW 8.0mph /  12.9km/h 18.0mph /  29km/h 52% 0.00in /  0mm
11:54 76.4 °F /  24.7 °C 57.5 °F /  14.2 °C 30.00in /  1015.8hPa SW 7.0mph /  11.3km/h 19.0mph /  30.6km/h 52% 0.00in /  0mm
12:00 76.7 °F /  24.8 °C 58.3 °F /  14.6 °C 30.00in /  1015.8hPa SW 8.0mph /  12.9km/h 19.0mph /  30.6km/h 53% 0.00in /  0mm
12:04 77.4 °F /  25.2 °C 60.0 °F /  15.6 °C 30.00in /  1015.8hPa SW 7.0mph /  11.3km/h 13.0mph /  20.9km/h 55% 0.00in /  0mm
12:09 76.9 °F /  24.9 °C 58.5 °F /  14.7 °C 30.00in /  1015.8hPa SW 12.0mph /  19.3km/h 17.0mph /  27.4km/h 53% 0.00in /  0mm
12:14 76.6 °F /  24.8 °C 59.7 °F /  15.4 °C 30.00in /  1015.8hPa South 13.0mph /  20.9km/h 17.0mph /  27.4km/h 56% 0.00in /  0mm
12:19 76.7 °F /  24.8 °C 61.8 °F /  16.6 °C 30.00in /  1015.8hPa WSW 9.0mph /  14.5km/h 18.0mph /  29km/h 60% 0.00in /  0mm
12:24 76.3 °F /  24.6 °C 57.9 °F /  14.4 °C 30.00in /  1015.8hPa WSW 9.0mph /  14.5km/h 19.0mph /  30.6km/h 53% 0.00in /  0mm
12:30 76.6 °F /  24.8 °C 61.2 °F /  16.2 °C 30.00in /  1015.8hPa WSW 9.0mph /  14.5km/h 19.0mph /  30.6km/h 59% 0.00in /  0mm
12:35 77.0 °F /  25 °C 60.6 °F /  15.9 °C 30.00in /  1015.8hPa West 9.0mph /  14.5km/h 17.0mph /  27.4km/h 57% 0.00in /  0mm
12:40 76.9 °F /  24.9 °C 60.5 °F /  15.8 °C 30.00in /  1015.8hPa South 10.0mph /  16.1km/h 18.0mph /  29km/h 57% 0.00in /  0mm
12:45 76.9 °F /  24.9 °C 59.5 °F /  15.3 °C 30.00in /  1015.8hPa SW 12.0mph /  19.3km/h 15.0mph /  24.1km/h 55% 0.00in /  0mm
12:49 77.8 °F /  25.4 °C 57.7 °F /  14.3 °C 30.00in /  1015.8hPa SW 8.0mph /  12.9km/h 20.0mph /  32.2km/h 50% 0.00in /  0mm
12:54 77.1 °F /  25.1 °C 59.2 °F /  15.1 °C 30.00in /  1015.8hPa SW 9.0mph /  14.5km/h 20.0mph /  32.2km/h 54% 0.00in /  0mm
12:59 77.2 °F /  25.1 °C 58.7 °F /  14.8 °C 30.00in /  1015.8hPa WSW 10.0mph /  16.1km/h 17.0mph /  27.4km/h 53% 0.00in /  0mm
13:04 77.2 °F /  25.1 °C 58.7 °F /  14.8 °C 30.00in /  1015.8hPa WSW 9.0mph /  14.5km/h 17.0mph /  27.4km/h 53% 0.00in /  0mm
13:09 76.8 °F /  24.9 °C 58.4 °F /  14.7 °C 30.00in /  1015.8hPa WSW 23.0mph /  37km/h 23.0mph /  37km/h 53% 0.00in /  0mm
13:14 77.3 °F /  25.2 °C 57.8 °F /  14.3 °C 30.00in /  1015.8hPa SW 9.0mph /  14.5km/h 23.0mph /  37km/h 51% 0.00in /  0mm
13:20 77.7 °F /  25.4 °C 58.7 °F /  14.8 °C 30.00in /  1015.8hPa West 4.0mph /  6.4km/h 14.0mph /  22.5km/h 52% 0.00in /  0mm
13:24 77.2 °F /  25.1 °C 57.7 °F /  14.3 °C 30.00in /  1015.8hPa WSW 8.0mph /  12.9km/h 17.0mph /  27.4km/h 51% 0.00in /  0mm
13:30 77.1 °F /  25.1 °C 57.0 °F /  13.9 °C 30.00in /  1015.8hPa West 11.0mph /  17.7km/h 15.0mph /  24.1km/h 50% 0.00in /  0mm
13:34 77.3 °F /  25.2 °C 59.9 °F /  15.5 °C 30.00in /  1015.8hPa SW 12.0mph /  19.3km/h 21.0mph /  33.8km/h 55% 0.00in /  0mm
13:39 77.7 °F /  25.4 °C 59.2 °F /  15.1 °C 29.99in /  1015.5hPa South 16.0mph /  25.7km/h 21.0mph /  33.8km/h 53% 0.00in /  0mm
13:44 77.2 °F /  25.1 °C 58.2 °F /  14.6 °C 29.99in /  1015.5hPa West 9.0mph /  14.5km/h 22.0mph /  35.4km/h 52% 0.00in /  0mm
13:50 77.4 °F /  25.2 °C 58.9 °F /  14.9 °C 30.00in /  1015.8hPa SW 5.0mph /  8km/h 17.0mph /  27.4km/h 53% 0.00in /  0mm
13:54 77.3 °F /  25.2 °C 57.8 °F /  14.3 °C 29.99in /  1015.5hPa WSW 9.0mph /  14.5km/h 17.0mph /  27.4km/h 51% 0.00in /  0mm
14:00 77.2 °F /  25.1 °C 58.2 °F /  14.6 °C 29.99in /  1015.5hPa WSW 10.0mph /  16.1km/h 19.0mph /  30.6km/h 52% 0.00in /  0mm
14:05 77.0 °F /  25 °C 58.6 °F /  14.8 °C 29.99in /  1015.5hPa SW 11.0mph /  17.7km/h 21.0mph /  33.8km/h 53% 0.00in /  0mm
14:10 77.2 °F /  25.1 °C 58.7 °F /  14.8 °C 29.99in /  1015.5hPa SW 10.0mph /  16.1km/h 22.0mph /  35.4km/h 53% 0.00in /  0mm
14:15 77.6 °F /  25.3 °C 58.6 °F /  14.8 °C 29.99in /  1015.5hPa WSW 9.0mph /  14.5km/h 22.0mph /  35.4km/h 52% 0.00in /  0mm
14:19 78.3 °F /  25.7 °C 58.1 °F /  14.5 °C 29.99in /  1015.5hPa WSW 9.0mph /  14.5km/h 24.0mph /  38.6km/h 50% 0.00in /  0mm
14:24 77.5 °F /  25.3 °C 57.9 °F /  14.4 °C 29.99in /  1015.5hPa WSW 10.0mph /  16.1km/h 20.0mph /  32.2km/h 51% 0.00in /  0mm
14:29 77.1 °F /  25.1 °C 55.9 °F /  13.3 °C 29.99in /  1015.5hPa WSW 8.0mph /  12.9km/h 24.0mph /  38.6km/h 48% 0.00in /  0mm
14:34 77.4 °F /  25.2 °C 58.4 °F /  14.7 °C 29.99in /  1015.5hPa SW 14.0mph /  22.5km/h 18.0mph /  29km/h 52% 0.00in /  0mm
14:39 76.7 °F /  24.8 °C 57.7 °F /  14.3 °C 29.99in /  1015.5hPa WSW 11.0mph /  17.7km/h 24.0mph /  38.6km/h 52% 0.00in /  0mm
14:44 76.6 °F /  24.8 °C 57.7 °F /  14.3 °C 29.99in /  1015.5hPa West 11.0mph /  17.7km/h 24.0mph /  38.6km/h 52% 0.00in /  0mm
14:49 76.9 °F /  24.9 °C 58.5 °F /  14.7 °C 29.99in /  1015.5hPa WSW 11.0mph /  17.7km/h 24.0mph /  38.6km/h 53% 0.00in /  0mm
14:55 77.5 °F /  25.3 °C 59.0 °F /  15 °C 29.99in /  1015.5hPa WSW 10.0mph /  16.1km/h 20.0mph /  32.2km/h 53% 0.00in /  0mm
14:59 77.5 °F /  25.3 °C 58.5 °F /  14.7 °C 29.99in /  1015.5hPa WSW 10.0mph /  16.1km/h 20.0mph /  32.2km/h 52% 0.00in /  0mm
15:04 77.5 °F /  25.3 °C 58.5 °F /  14.7 °C 29.99in /  1015.5hPa WSW 10.0mph /  16.1km/h 20.0mph /  32.2km/h 52% 0.00in /  0mm
15:10 77.2 °F /  25.1 °C 58.2 °F /  14.6 °C 29.99in /  1015.5hPa WSW 8.0mph /  12.9km/h 20.0mph /  32.2km/h 52% 0.00in /  0mm
15:14 77.6 °F /  25.3 °C 57.5 °F /  14.2 °C 29.99in /  1015.5hPa WSW 11.0mph /  17.7km/h 20.0mph /  32.2km/h 50% 0.00in /  0mm
15:19 77.5 °F /  25.3 °C 57.9 °F /  14.4 °C 29.99in /  1015.5hPa WSW 8.0mph /  12.9km/h 20.0mph /  32.2km/h 51% 0.00in /  0mm
15:24 77.4 °F /  25.2 °C 57.9 °F /  14.4 °C 29.99in /  1015.5hPa SSW 8.0mph /  12.9km/h 17.0mph /  27.4km/h 51% 0.00in /  0mm
15:29 77.4 °F /  25.2 °C 57.9 °F /  14.4 °C 29.98in /  1015.1hPa West 4.0mph /  6.4km/h 17.0mph /  27.4km/h 51% 0.00in /  0mm
15:34 77.4 °F /  25.2 °C 57.3 °F /  14.1 °C 29.98in /  1015.1hPa SW 9.0mph /  14.5km/h 18.0mph /  29km/h 50% 0.00in /  0mm
15:39 77.5 °F /  25.3 °C 56.8 °F /  13.8 °C 29.98in /  1015.1hPa SSW 19.0mph /  30.6km/h 19.0mph /  30.6km/h 49% 0.00in /  0mm
15:44 77.5 °F /  25.3 °C 58.5 °F /  14.7 °C 29.98in /  1015.1hPa WSW 9.0mph /  14.5km/h 19.0mph /  30.6km/h 52% 0.00in /  0mm
15:49 78.5 °F /  25.8 °C 57.7 °F /  14.3 °C 29.98in /  1015.1hPa WSW 8.0mph /  12.9km/h 19.0mph /  30.6km/h 49% 0.00in /  0mm
15:54 77.7 °F /  25.4 °C 54.7 °F /  12.6 °C 29.98in /  1015.1hPa WSW 9.0mph /  14.5km/h 19.0mph /  30.6km/h 45% 0.00in /  0mm
15:59 77.7 °F /  25.4 °C 56.4 °F /  13.6 °C 29.98in /  1015.1hPa WSW 10.0mph /  16.1km/h 19.0mph /  30.6km/h 48% 0.00in /  0mm
16:05 77.4 °F /  25.2 °C 56.7 °F /  13.7 °C 29.98in /  1015.1hPa WSW 10.0mph /  16.1km/h 18.0mph /  29km/h 49% 0.00in /  0mm
16:10 77.3 °F /  25.2 °C 57.2 °F /  14 °C 29.98in /  1015.1hPa SW 10.0mph /  16.1km/h 18.0mph /  29km/h 50% 0.00in /  0mm
16:14 77.1 °F /  25.1 °C 55.9 °F /  13.3 °C 29.98in /  1015.1hPa WSW 10.0mph /  16.1km/h 19.0mph /  30.6km/h 48% 0.00in /  0mm
16:19 76.9 °F /  24.9 °C 55.7 °F /  13.2 °C 29.98in /  1015.1hPa SW 12.0mph /  19.3km/h 21.0mph /  33.8km/h 48% 0.00in /  0mm
16:24 76.7 °F /  24.8 °C 56.7 °F /  13.7 °C 29.98in /  1015.1hPa WSW 5.0mph /  8km/h 21.0mph /  33.8km/h 50% 0.00in /  0mm
16:29 77.6 °F /  25.3 °C 56.9 °F /  13.8 °C 29.98in /  1015.1hPa SW 14.0mph /  22.5km/h 21.0mph /  33.8km/h 49% 0.00in /  0mm
16:34 77.9 °F /  25.5 °C 57.8 °F /  14.3 °C 29.98in /  1015.1hPa SW 18.0mph /  29km/h 18.0mph /  29km/h 50% 0.00in /  0mm
16:39 77.4 °F /  25.2 °C 56.2 °F /  13.4 °C 29.97in /  1014.8hPa WSW 13.0mph /  20.9km/h 18.0mph /  29km/h 48% 0.00in /  0mm
16:44 76.9 °F /  24.9 °C 55.7 °F /  13.2 °C 29.98in /  1015.1hPa NW 8.0mph /  12.9km/h 19.0mph /  30.6km/h 48% 0.00in /  0mm
16:49 76.7 °F /  24.8 °C 56.1 °F /  13.4 °C 29.97in /  1014.8hPa WSW 10.0mph /  16.1km/h 19.0mph /  30.6km/h 49% 0.00in /  0mm
16:54 76.9 °F /  24.9 °C 56.3 °F /  13.5 °C 29.97in /  1014.8hPa WSW 10.0mph /  16.1km/h 19.0mph /  30.6km/h 49% 0.00in /  0mm
16:59 77.4 °F /  25.2 °C 56.2 °F /  13.4 °C 29.97in /  1014.8hPa SW 12.0mph /  19.3km/h 13.0mph /  20.9km/h 48% 0.00in /  0mm
17:04 77.1 °F /  25.1 °C 57.0 °F /  13.9 °C 29.97in /  1014.8hPa WSW 8.0mph /  12.9km/h 15.0mph /  24.1km/h 50% 0.00in /  0mm
17:10 76.9 °F /  24.9 °C 56.8 °F /  13.8 °C 29.97in /  1014.8hPa WSW 9.0mph /  14.5km/h 16.0mph /  25.7km/h 50% 0.00in /  0mm
17:14 76.8 °F /  24.9 °C 56.2 °F /  13.4 °C 29.97in /  1014.8hPa WSW 10.0mph /  16.1km/h 21.0mph /  33.8km/h 49% 0.00in /  0mm
17:19 76.4 °F /  24.7 °C 57.5 °F /  14.2 °C 29.97in /  1014.8hPa WSW 9.0mph /  14.5km/h 21.0mph /  33.8km/h 52% 0.00in /  0mm
17:24 76.8 °F /  24.9 °C 56.8 °F /  13.8 °C 29.97in /  1014.8hPa WSW 8.0mph /  12.9km/h 18.0mph /  29km/h 50% 0.00in /  0mm
17:29 76.5 °F /  24.7 °C 56.5 °F /  13.6 °C 29.97in /  1014.8hPa WSW 9.0mph /  14.5km/h 18.0mph /  29km/h 50% 0.00in /  0mm
17:35 76.4 °F /  24.7 °C 55.8 °F /  13.2 °C 29.97in /  1014.8hPa WSW 10.0mph /  16.1km/h 20.0mph /  32.2km/h 49% 0.00in /  0mm
17:40 76.0 °F /  24.4 °C 56.0 °F /  13.3 °C 29.97in /  1014.8hPa WSW 10.0mph /  16.1km/h 20.0mph /  32.2km/h 50% 0.00in /  0mm
17:45 75.8 °F /  24.3 °C 56.9 °F /  13.8 °C 29.97in /  1014.8hPa WSW 10.0mph /  16.1km/h 19.0mph /  30.6km/h 52% 0.00in /  0mm
17:49 76.1 °F /  24.5 °C 56.7 °F /  13.7 °C 29.97in /  1014.8hPa SW 15.0mph /  24.1km/h 19.0mph /  30.6km/h 51% 0.00in /  0mm
17:54 75.9 °F /  24.4 °C 56.5 °F /  13.6 °C 29.97in /  1014.8hPa WSW 11.0mph /  17.7km/h 22.0mph /  35.4km/h 51% 0.00in /  0mm
17:59 75.8 °F /  24.3 °C 56.9 °F /  13.8 °C 29.97in /  1014.8hPa West 7.0mph /  11.3km/h 18.0mph /  29km/h 52% 0.00in /  0mm
18:04 76.1 °F /  24.5 °C 56.7 °F /  13.7 °C 29.97in /  1014.8hPa WSW 8.0mph /  12.9km/h 16.0mph /  25.7km/h 51% 0.00in /  0mm
18:09 75.9 °F /  24.4 °C 57.5 °F /  14.2 °C 29.96in /  1014.4hPa SW 5.0mph /  8km/h 18.0mph /  29km/h 53% 0.00in /  0mm
18:14 76.0 °F /  24.4 °C 56.6 °F /  13.7 °C 29.97in /  1014.8hPa SSW 8.0mph /  12.9km/h 16.0mph /  25.7km/h 51% 0.00in /  0mm
18:19 75.6 °F /  24.2 °C 56.2 °F /  13.4 °C 29.97in /  1014.8hPa WSW 8.0mph /  12.9km/h 19.0mph /  30.6km/h 51% 0.00in /  0mm
18:24 75.3 °F /  24.1 °C 56.5 °F /  13.6 °C 29.96in /  1014.4hPa WSW 8.0mph /  12.9km/h 19.0mph /  30.6km/h 52% 0.00in /  0mm
18:29 75.2 °F /  24 °C 56.9 °F /  13.8 °C 29.97in /  1014.8hPa WSW 7.0mph /  11.3km/h 19.0mph /  30.6km/h 53% 0.00in /  0mm
18:35 75.1 °F /  23.9 °C 56.3 °F /  13.5 °C 29.97in /  1014.8hPa SW 14.0mph /  22.5km/h 15.0mph /  24.1km/h 52% 0.00in /  0mm
18:39 74.9 °F /  23.8 °C 56.6 °F /  13.7 °C 29.97in /  1014.8hPa SW 9.0mph /  14.5km/h 17.0mph /  27.4km/h 53% 0.00in /  0mm
18:45 74.7 °F /  23.7 °C 55.4 °F /  13 °C 29.96in /  1014.4hPa West 11.0mph /  17.7km/h 16.0mph /  25.7km/h 51% 0.00in /  0mm
18:49 74.6 °F /  23.7 °C 55.3 °F /  12.9 °C 29.96in /  1014.4hPa WSW 9.0mph /  14.5km/h 18.0mph /  29km/h 51% 0.00in /  0mm
18:54 74.6 °F /  23.7 °C 55.8 °F /  13.2 °C 29.96in /  1014.4hPa WSW 9.0mph /  14.5km/h 18.0mph /  29km/h 52% 0.00in /  0mm
18:59 74.7 °F /  23.7 °C 55.9 °F /  13.3 °C 29.96in /  1014.4hPa SSW 7.0mph /  11.3km/h 14.0mph /  22.5km/h 52% 0.00in /  0mm
19:04 74.7 °F /  23.7 °C 55.4 °F /  13 °C 29.96in /  1014.4hPa WSW 10.0mph /  16.1km/h 16.0mph /  25.7km/h 51% 0.00in /  0mm
19:09 74.8 °F /  23.8 °C 56.0 °F /  13.3 °C 29.96in /  1014.4hPa SSW 7.0mph /  11.3km/h 13.0mph /  20.9km/h 52% 0.00in /  0mm
19:14 74.5 °F /  23.6 °C 54.6 °F /  12.6 °C 29.96in /  1014.4hPa SW 8.0mph /  12.9km/h 20.0mph /  32.2km/h 50% 0.00in /  0mm
19:19 74.4 °F /  23.6 °C 55.1 °F /  12.8 °C 29.96in /  1014.4hPa SW 8.0mph /  12.9km/h 20.0mph /  32.2km/h 51% 0.00in /  0mm
19:24 74.4 °F /  23.6 °C 55.1 °F /  12.8 °C 29.96in /  1014.4hPa WSW 7.0mph /  11.3km/h 16.0mph /  25.7km/h 51% 0.00in /  0mm
19:29 74.4 °F /  23.6 °C 55.1 °F /  12.8 °C 29.96in /  1014.4hPa SW 8.0mph /  12.9km/h 15.0mph /  24.1km/h 51% 0.00in /  0mm
19:34 74.1 °F /  23.4 °C 55.3 °F /  12.9 °C 29.96in /  1014.4hPa SW 8.0mph /  12.9km/h 16.0mph /  25.7km/h 52% 0.00in /  0mm
19:39 73.9 °F /  23.3 °C 55.7 °F /  13.2 °C 29.96in /  1014.4hPa SW 5.0mph /  8km/h 16.0mph /  25.7km/h 53% 0.00in /  0mm
19:44 73.7 °F /  23.2 °C 56.0 °F /  13.3 °C 29.96in /  1014.4hPa WSW 7.0mph /  11.3km/h 16.0mph /  25.7km/h 54% 0.00in /  0mm
19:49 73.4 °F /  23 °C 56.2 °F /  13.4 °C 29.96in /  1014.4hPa WSW 6.0mph /  9.7km/h 13.0mph /  20.9km/h 55% 0.00in /  0mm
19:54 73.3 °F /  22.9 °C 56.7 °F /  13.7 °C 29.96in /  1014.4hPa West 7.0mph /  11.3km/h 12.0mph /  19.3km/h 56% 0.00in /  0mm
19:59 73.2 °F /  22.9 °C 57.1 °F /  13.9 °C 29.95in /  1014.1hPa WSW 3.0mph /  4.8km/h 17.0mph /  27.4km/h 57% 0.00in /  0mm
20:04 73.0 °F /  22.8 °C 57.3 °F /  14.1 °C 29.95in /  1014.1hPa SW 5.0mph /  8km/h 12.0mph /  19.3km/h 58% 0.00in /  0mm
20:09 72.9 °F /  22.7 °C 57.3 °F /  14.1 °C 29.95in /  1014.1hPa SW 8.0mph /  12.9km/h 10.0mph /  16.1km/h 58% 0.00in /  0mm
20:14 72.6 °F /  22.6 °C 57.9 °F /  14.4 °C 29.95in /  1014.1hPa SW 5.0mph /  8km/h 11.0mph /  17.7km/h 60% 0.00in /  0mm
20:19 72.4 °F /  22.4 °C 57.7 °F /  14.3 °C 29.95in /  1014.1hPa SW 6.0mph /  9.7km/h 11.0mph /  17.7km/h 60% 0.00in /  0mm
20:24 72.4 °F /  22.4 °C 57.7 °F /  14.3 °C 29.95in /  1014.1hPa SW 6.0mph /  9.7km/h 11.0mph /  17.7km/h 60% 0.00in /  0mm
20:29 72.3 °F /  22.4 °C 58.1 °F /  14.5 °C 29.95in /  1014.1hPa SW 6.0mph /  9.7km/h 11.0mph /  17.7km/h 61% 0.00in /  0mm
20:35 72.2 °F /  22.3 °C 58.5 °F /  14.7 °C 29.95in /  1014.1hPa SSE 2.0mph /  3.2km/h 11.0mph /  17.7km/h 62% 0.00in /  0mm
20:39 72.1 °F /  22.3 °C 58.4 °F /  14.7 °C 29.95in /  1014.1hPa West 5.0mph /  8km/h 11.0mph /  17.7km/h 62% 0.00in /  0mm
20:45 71.9 °F /  22.2 °C 58.6 °F /  14.8 °C 29.95in /  1014.1hPa SW 4.0mph /  6.4km/h 9.0mph /  14.5km/h 63% 0.00in /  0mm
20:49 71.8 °F /  22.1 °C 59.0 °F /  15 °C 29.95in /  1014.1hPa WSW 5.0mph /  8km/h 11.0mph /  17.7km/h 64% 0.00in /  0mm
20:54 71.5 °F /  21.9 °C 58.7 °F /  14.8 °C 29.95in /  1014.1hPa SW 9.0mph /  14.5km/h 10.0mph /  16.1km/h 64% 0.00in /  0mm
20:59 71.5 °F /  21.9 °C 59.1 °F /  15.1 °C 29.95in /  1014.1hPa WSW 6.0mph /  9.7km/h 12.0mph /  19.3km/h 65% 0.00in /  0mm
21:04 71.4 °F /  21.9 °C 59.0 °F /  15 °C 29.95in /  1014.1hPa SW 5.0mph /  8km/h 12.0mph /  19.3km/h 65% 0.00in /  0mm
21:09 71.2 °F /  21.8 °C 59.3 °F /  15.2 °C 29.95in /  1014.1hPa WSW 6.0mph /  9.7km/h 9.0mph /  14.5km/h 66% 0.00in /  0mm
21:14 71.1 °F /  21.7 °C 59.6 °F /  15.3 °C 29.95in /  1014.1hPa SW 3.0mph /  4.8km/h 7.0mph /  11.3km/h 67% 0.00in /  0mm
21:19 70.9 °F /  21.6 °C 59.4 °F /  15.2 °C 29.95in /  1014.1hPa SW 4.0mph /  6.4km/h 8.0mph /  12.9km/h 67% 0.00in /  0mm
21:24 70.9 °F /  21.6 °C 59.4 °F /  15.2 °C 29.95in /  1014.1hPa SW 4.0mph /  6.4km/h 11.0mph /  17.7km/h 67% 0.00in /  0mm
21:29 71.0 °F /  21.7 °C 59.5 °F /  15.3 °C 29.96in /  1014.4hPa SW 6.0mph /  9.7km/h 7.0mph /  11.3km/h 67% 0.00in /  0mm
21:34 71.0 °F /  21.7 °C 59.5 °F /  15.3 °C 29.96in /  1014.4hPa SSW 6.0mph /  9.7km/h 10.0mph /  16.1km/h 67% 0.00in /  0mm
21:39 71.1 °F /  21.7 °C 59.6 °F /  15.3 °C 29.96in /  1014.4hPa WSW 3.0mph /  4.8km/h 9.0mph /  14.5km/h 67% 0.00in /  0mm
21:44 71.0 °F /  21.7 °C 59.5 °F /  15.3 °C 29.96in /  1014.4hPa WSW 3.0mph /  4.8km/h 8.0mph /  12.9km/h 67% 0.00in /  0mm
21:49 71.0 °F /  21.7 °C 59.5 °F /  15.3 °C 29.96in /  1014.4hPa WSW 4.0mph /  6.4km/h 10.0mph /  16.1km/h 67% 0.00in /  0mm
21:54 71.0 °F /  21.7 °C 59.5 °F /  15.3 °C 29.96in /  1014.4hPa SW 5.0mph /  8km/h 10.0mph /  16.1km/h 67% 0.00in /  0mm
21:59 71.0 °F /  21.7 °C 59.5 °F /  15.3 °C 29.96in /  1014.4hPa SW 5.0mph /  8km/h 10.0mph /  16.1km/h 67% 0.00in /  0mm
22:04 71.0 °F /  21.7 °C 59.5 °F /  15.3 °C 29.96in /  1014.4hPa SW 6.0mph /  9.7km/h 10.0mph /  16.1km/h 67% 0.00in /  0mm
22:09 70.9 °F /  21.6 °C 59.4 °F /  15.2 °C 29.96in /  1014.4hPa SW 4.0mph /  6.4km/h 8.0mph /  12.9km/h 67% 0.00in /  0mm
22:14 70.8 °F /  21.6 °C 59.3 °F /  15.2 °C 29.96in /  1014.4hPa WSW 4.0mph /  6.4km/h 6.0mph /  9.7km/h 67% 0.00in /  0mm
22:19 70.7 °F /  21.5 °C 59.2 °F /  15.1 °C 29.96in /  1014.4hPa WSW 3.0mph /  4.8km/h 6.0mph /  9.7km/h 67% 0.00in /  0mm
22:24 70.6 °F /  21.4 °C 59.5 °F /  15.3 °C 29.96in /  1014.4hPa WSW 4.0mph /  6.4km/h 9.0mph /  14.5km/h 68% 0.00in /  0mm
22:29 70.7 °F /  21.5 °C 59.2 °F /  15.1 °C 29.96in /  1014.4hPa South 3.0mph /  4.8km/h 9.0mph /  14.5km/h 67% 0.00in /  0mm
22:35 70.8 °F /  21.6 °C 59.3 °F /  15.2 °C 29.96in /  1014.4hPa SW 5.0mph /  8km/h 9.0mph /  14.5km/h 67% 0.00in /  0mm
22:39 70.7 °F /  21.5 °C 59.2 °F /  15.1 °C 29.96in /  1014.4hPa SW 3.0mph /  4.8km/h 8.0mph /  12.9km/h 67% 0.00in /  0mm
22:44 70.6 °F /  21.4 °C 59.1 °F /  15.1 °C 29.96in /  1014.4hPa West 3.0mph /  4.8km/h 9.0mph /  14.5km/h 67% 0.00in /  0mm
22:49 70.5 °F /  21.4 °C 59.0 °F /  15 °C 29.96in /  1014.4hPa WSW 3.0mph /  4.8km/h 9.0mph /  14.5km/h 67% 0.00in /  0mm
22:54 70.4 °F /  21.3 °C 59.3 °F /  15.2 °C 29.96in /  1014.4hPa WSW 3.0mph /  4.8km/h 7.0mph /  11.3km/h 68% 0.00in /  0mm
22:59 70.4 °F /  21.3 °C 59.3 °F /  15.2 °C 29.97in /  1014.8hPa WSW 3.0mph /  4.8km/h 7.0mph /  11.3km/h 68% 0.00in /  0mm
23:04 70.4 °F /  21.3 °C 59.3 °F /  15.2 °C 29.97in /  1014.8hPa SW 5.0mph /  8km/h 11.0mph /  17.7km/h 68% 0.00in /  0mm
23:09 70.4 °F /  21.3 °C 59.3 °F /  15.2 °C 29.97in /  1014.8hPa SW 5.0mph /  8km/h 11.0mph /  17.7km/h 68% 0.00in /  0mm
23:14 70.4 °F /  21.3 °C 59.3 °F /  15.2 °C 29.96in /  1014.4hPa SW 1.0mph /  1.6km/h 7.0mph /  11.3km/h 68% 0.00in /  0mm
23:19 70.4 °F /  21.3 °C 59.7 °F /  15.4 °C 29.96in /  1014.4hPa SW 4.0mph /  6.4km/h 8.0mph /  12.9km/h 69% 0.00in /  0mm
23:24 70.4 °F /  21.3 °C 59.7 °F /  15.4 °C 29.96in /  1014.4hPa SW 4.0mph /  6.4km/h 9.0mph /  14.5km/h 69% 0.00in /  0mm
23:29 70.2 °F /  21.2 °C 60.0 °F /  15.6 °C 29.97in /  1014.8hPa SSW 3.0mph /  4.8km/h 5.0mph /  8km/h 70% 0.00in /  0mm
23:34 70.0 °F /  21.1 °C 59.8 °F /  15.4 °C 29.97in /  1014.8hPa West 2.0mph /  3.2km/h 9.0mph /  14.5km/h 70% 0.00in /  0mm
23:39 69.9 °F /  21.1 °C 59.7 °F /  15.4 °C 29.97in /  1014.8hPa WSW 4.0mph /  6.4km/h 7.0mph /  11.3km/h 70% 0.00in /  0mm
23:44 70.0 °F /  21.1 °C 59.8 °F /  15.4 °C 29.97in /  1014.8hPa SW 4.0mph /  6.4km/h 11.0mph /  17.7km/h 70% 0.00in /  0mm
23:49 70.1 °F /  21.2 °C 59.9 °F /  15.5 °C 29.97in /  1014.8hPa SW 4.0mph /  6.4km/h 11.0mph /  17.7km/h 70% 0.00in /  0mm
23:54 70.2 °F /  21.2 °C 60.0 °F /  15.6 °C 29.96in /  1014.4hPa SW 4.0mph /  6.4km/h 8.0mph /  12.9km/h 70% 0.00in /  0mm
23:59 70.2 °F /  21.2 °C 60.0 °F /  15.6 °C 29.97in /  1014.8hPa SW 2.0mph /  3.2km/h 7.0mph /  11.3km/h 70% 0.00in /  0mm
Buffalo, New York, USA
Compliments of Weather Underground - 2.5 mb